sensor_id;sensor_type;location;lat;lon;timestamp;P1;durP1;ratioP1;P2;durP2;ratioP2
57593;SDS011;43423;46.510;6.686;2022-10-13T00:01:42;25.48;;;13.30;;
57593;SDS011;43423;46.510;6.686;2022-10-13T00:04:08;24.45;;;11.85;;
57593;SDS011;43423;46.510;6.686;2022-10-13T00:06:33;28.05;;;12.73;;
57593;SDS011;43423;46.510;6.686;2022-10-13T00:08:59;25.33;;;13.07;;
57593;SDS011;43423;46.510;6.686;2022-10-13T00:11:26;22.77;;;13.05;;
57593;SDS011;43423;46.510;6.686;2022-10-13T00:13:56;25.55;;;12.95;;
57593;SDS011;43423;46.510;6.686;2022-10-13T00:16:25;19.00;;;11.73;;
57593;SDS011;43423;46.510;6.686;2022-10-13T00:18:53;25.67;;;12.50;;
57593;SDS011;43423;46.510;6.686;2022-10-13T00:21:20;25.15;;;12.45;;
57593;SDS011;43423;46.510;6.686;2022-10-13T00:23:48;23.48;;;12.13;;
57593;SDS011;43423;46.510;6.686;2022-10-13T00:26:15;22.73;;;10.90;;
57593;SDS011;43423;46.510;6.686;2022-10-13T00:28:42;27.92;;;12.68;;
57593;SDS011;43423;46.510;6.686;2022-10-13T00:31:21;21.08;;;12.20;;
57593;SDS011;43423;46.510;6.686;2022-10-13T00:33:51;23.90;;;11.50;;
57593;SDS011;43423;46.510;6.686;2022-10-13T00:36:20;22.65;;;12.10;;
57593;SDS011;43423;46.510;6.686;2022-10-13T00:38:47;24.35;;;11.60;;
57593;SDS011;43423;46.510;6.686;2022-10-13T00:41:12;17.17;;;10.57;;
57593;SDS011;43423;46.510;6.686;2022-10-13T00:43:52;24.83;;;11.25;;
57593;SDS011;43423;46.510;6.686;2022-10-13T00:46:22;17.70;;;10.57;;
57593;SDS011;43423;46.510;6.686;2022-10-13T00:48:49;24.55;;;10.90;;
57593;SDS011;43423;46.510;6.686;2022-10-13T00:51:18;16.08;;;9.55;;
57593;SDS011;43423;46.510;6.686;2022-10-13T00:53:47;27.45;;;10.30;;
57593;SDS011;43423;46.510;6.686;2022-10-13T00:56:14;21.75;;;10.50;;
57593;SDS011;43423;46.510;6.686;2022-10-13T00:58:42;23.25;;;10.90;;
57593;SDS011;43423;46.510;6.686;2022-10-13T01:01:08;24.88;;;10.88;;
57593;SDS011;43423;46.510;6.686;2022-10-13T01:03:35;19.35;;;10.55;;
57593;SDS011;43423;46.510;6.686;2022-10-13T01:06:01;18.08;;;10.38;;
57593;SDS011;43423;46.510;6.686;2022-10-13T01:08:29;17.83;;;9.45;;
57593;SDS011;43423;46.510;6.686;2022-10-13T01:10:57;18.70;;;10.13;;
57593;SDS011;43423;46.510;6.686;2022-10-13T01:38:21;18.95;;;9.85;;
57593;SDS011;43423;46.510;6.686;2022-10-13T01:40:58;18.60;;;9.52;;
57593;SDS011;43423;46.510;6.686;2022-10-13T01:43:36;17.65;;;10.27;;
57593;SDS011;43423;46.510;6.686;2022-10-13T01:46:25;19.85;;;9.57;;
57593;SDS011;43423;46.510;6.686;2022-10-13T01:48:54;21.48;;;11.32;;
57593;SDS011;43423;46.510;6.686;2022-10-13T01:51:24;21.08;;;10.98;;
57593;SDS011;43423;46.510;6.686;2022-10-13T01:53:51;21.20;;;10.60;;
57593;SDS011;43423;46.510;6.686;2022-10-13T01:56:16;18.70;;;10.85;;
57593;SDS011;43423;46.510;6.686;2022-10-13T01:58:42;21.15;;;11.43;;
57593;SDS011;43423;46.510;6.686;2022-10-13T02:01:13;23.73;;;11.60;;
57593;SDS011;43423;46.510;6.686;2022-10-13T02:03:56;22.63;;;10.50;;
57593;SDS011;43423;46.510;6.686;2022-10-13T02:06:42;24.17;;;11.82;;
57593;SDS011;43423;46.510;6.686;2022-10-13T02:09:13;20.50;;;12.50;;
57593;SDS011;43423;46.510;6.686;2022-10-13T02:11:47;25.42;;;12.02;;
57593;SDS011;43423;46.510;6.686;2022-10-13T02:14:17;17.20;;;11.23;;
57593;SDS011;43423;46.510;6.686;2022-10-13T02:16:47;27.52;;;11.20;;
57593;SDS011;43423;46.510;6.686;2022-10-13T02:19:15;19.00;;;11.18;;
57593;SDS011;43423;46.510;6.686;2022-10-13T02:21:42;21.45;;;11.70;;
57593;SDS011;43423;46.510;6.686;2022-10-13T02:24:08;22.38;;;10.90;;
57593;SDS011;43423;46.510;6.686;2022-10-13T02:26:35;28.23;;;10.63;;
57593;SDS011;43423;46.510;6.686;2022-10-13T02:29:08;20.15;;;11.45;;
57593;SDS011;43423;46.510;6.686;2022-10-13T02:31:39;19.55;;;10.75;;
57593;SDS011;43423;46.510;6.686;2022-10-13T02:34:05;23.60;;;11.23;;
57593;SDS011;43423;46.510;6.686;2022-10-13T02:36:31;22.10;;;10.70;;
57593;SDS011;43423;46.510;6.686;2022-10-13T02:38:56;16.90;;;10.18;;
57593;SDS011;43423;46.510;6.686;2022-10-13T02:41:22;20.85;;;11.65;;
57593;SDS011;43423;46.510;6.686;2022-10-13T02:43:47;19.88;;;10.00;;
57593;SDS011;43423;46.510;6.686;2022-10-13T02:46:13;21.98;;;10.60;;
57593;SDS011;43423;46.510;6.686;2022-10-13T02:48:39;18.05;;;10.20;;
57593;SDS011;43423;46.510;6.686;2022-10-13T02:51:04;22.17;;;10.40;;
57593;SDS011;43423;46.510;6.686;2022-10-13T02:53:30;22.50;;;11.15;;
57593;SDS011;43423;46.510;6.686;2022-10-13T02:55:56;22.40;;;11.30;;
57593;SDS011;43423;46.510;6.686;2022-10-13T02:58:21;20.80;;;12.38;;
57593;SDS011;43423;46.510;6.686;2022-10-13T03:00:47;22.67;;;12.15;;
57593;SDS011;43423;46.510;6.686;2022-10-13T03:03:12;20.40;;;12.35;;
57593;SDS011;43423;46.510;6.686;2022-10-13T03:05:38;21.45;;;11.07;;
57593;SDS011;43423;46.510;6.686;2022-10-13T03:08:03;23.75;;;12.52;;
57593;SDS011;43423;46.510;6.686;2022-10-13T03:10:29;26.38;;;12.23;;
57593;SDS011;43423;46.510;6.686;2022-10-13T03:12:56;24.90;;;11.65;;
57593;SDS011;43423;46.510;6.686;2022-10-13T03:15:22;23.70;;;12.05;;
57593;SDS011;43423;46.510;6.686;2022-10-13T03:17:48;22.98;;;11.45;;
57593;SDS011;43423;46.510;6.686;2022-10-13T03:20:13;22.00;;;11.10;;
57593;SDS011;43423;46.510;6.686;2022-10-13T03:22:39;22.02;;;11.68;;
57593;SDS011;43423;46.510;6.686;2022-10-13T03:25:05;21.13;;;11.43;;
57593;SDS011;43423;46.510;6.686;2022-10-13T03:27:31;22.08;;;11.88;;
57593;SDS011;43423;46.510;6.686;2022-10-13T03:29:56;19.27;;;11.52;;
57593;SDS011;43423;46.510;6.686;2022-10-13T03:32:22;20.67;;;11.38;;
57593;SDS011;43423;46.510;6.686;2022-10-13T03:34:48;21.60;;;10.77;;
57593;SDS011;43423;46.510;6.686;2022-10-13T03:37:14;21.77;;;11.90;;
57593;SDS011;43423;46.510;6.686;2022-10-13T03:39:39;23.88;;;10.85;;
57593;SDS011;43423;46.510;6.686;2022-10-13T03:42:04;25.92;;;11.05;;
57593;SDS011;43423;46.510;6.686;2022-10-13T03:44:30;20.35;;;11.10;;
57593;SDS011;43423;46.510;6.686;2022-10-13T03:46:55;24.00;;;11.02;;
57593;SDS011;43423;46.510;6.686;2022-10-13T03:49:21;21.60;;;11.27;;
57593;SDS011;43423;46.510;6.686;2022-10-13T03:51:46;24.83;;;11.15;;
57593;SDS011;43423;46.510;6.686;2022-10-13T03:54:12;21.70;;;11.15;;
57593;SDS011;43423;46.510;6.686;2022-10-13T03:56:37;16.73;;;10.07;;
57593;SDS011;43423;46.510;6.686;2022-10-13T03:59:04;18.02;;;9.95;;
57593;SDS011;43423;46.510;6.686;2022-10-13T04:01:30;16.88;;;10.25;;
57593;SDS011;43423;46.510;6.686;2022-10-13T04:03:57;17.15;;;9.93;;
57593;SDS011;43423;46.510;6.686;2022-10-13T04:06:23;18.70;;;9.95;;
57593;SDS011;43423;46.510;6.686;2022-10-13T04:08:50;26.80;;;10.73;;
57593;SDS011;43423;46.510;6.686;2022-10-13T04:11:16;16.63;;;9.27;;
57593;SDS011;43423;46.510;6.686;2022-10-13T04:13:42;19.63;;;10.77;;
57593;SDS011;43423;46.510;6.686;2022-10-13T04:16:11;17.25;;;9.93;;
57593;SDS011;43423;46.510;6.686;2022-10-13T04:18:42;19.95;;;9.40;;
57593;SDS011;43423;46.510;6.686;2022-10-13T04:21:08;18.70;;;9.52;;
57593;SDS011;43423;46.510;6.686;2022-10-13T04:23:35;17.73;;;8.82;;
57593;SDS011;43423;46.510;6.686;2022-10-13T04:26:02;17.63;;;9.00;;
57593;SDS011;43423;46.510;6.686;2022-10-13T04:28:28;16.98;;;9.57;;
57593;SDS011;43423;46.510;6.686;2022-10-13T04:30:54;18.15;;;9.95;;
57593;SDS011;43423;46.510;6.686;2022-10-13T04:33:19;17.20;;;9.63;;
57593;SDS011;43423;46.510;6.686;2022-10-13T04:35:45;17.95;;;9.63;;
57593;SDS011;43423;46.510;6.686;2022-10-13T04:38:10;14.80;;;8.88;;
57593;SDS011;43423;46.510;6.686;2022-10-13T04:40:36;22.88;;;9.95;;
57593;SDS011;43423;46.510;6.686;2022-10-13T04:43:01;19.65;;;10.10;;
57593;SDS011;43423;46.510;6.686;2022-10-13T04:45:27;15.65;;;9.45;;
57593;SDS011;43423;46.510;6.686;2022-10-13T04:47:53;18.33;;;10.38;;
57593;SDS011;43423;46.510;6.686;2022-10-13T04:50:18;17.15;;;9.30;;
57593;SDS011;43423;46.510;6.686;2022-10-13T04:52:44;20.13;;;9.50;;
57593;SDS011;43423;46.510;6.686;2022-10-13T04:55:10;14.57;;;8.63;;
57593;SDS011;43423;46.510;6.686;2022-10-13T04:57:35;17.70;;;9.88;;
57593;SDS011;43423;46.510;6.686;2022-10-13T05:00:01;21.90;;;10.13;;
57593;SDS011;43423;46.510;6.686;2022-10-13T05:02:28;16.83;;;9.93;;
57593;SDS011;43423;46.510;6.686;2022-10-13T05:04:54;21.48;;;8.57;;
57593;SDS011;43423;46.510;6.686;2022-10-13T05:07:19;15.93;;;8.65;;
57593;SDS011;43423;46.510;6.686;2022-10-13T05:09:45;17.13;;;8.15;;
57593;SDS011;43423;46.510;6.686;2022-10-13T05:12:10;16.08;;;9.57;;
57593;SDS011;43423;46.510;6.686;2022-10-13T05:14:36;18.50;;;8.55;;
57593;SDS011;43423;46.510;6.686;2022-10-13T05:17:02;14.52;;;8.75;;
57593;SDS011;43423;46.510;6.686;2022-10-13T05:19:27;14.73;;;8.88;;
57593;SDS011;43423;46.510;6.686;2022-10-13T05:21:52;17.17;;;7.82;;
57593;SDS011;43423;46.510;6.686;2022-10-13T05:24:18;15.25;;;8.10;;
57593;SDS011;43423;46.510;6.686;2022-10-13T05:26:54;17.55;;;9.30;;
57593;SDS011;43423;46.510;6.686;2022-10-13T05:29:20;16.30;;;8.27;;
57593;SDS011;43423;46.510;6.686;2022-10-13T05:31:45;15.80;;;8.75;;
57593;SDS011;43423;46.510;6.686;2022-10-13T05:34:11;15.80;;;8.98;;
57593;SDS011;43423;46.510;6.686;2022-10-13T05:36:37;17.13;;;9.23;;
57593;SDS011;43423;46.510;6.686;2022-10-13T05:39:03;17.00;;;9.20;;
57593;SDS011;43423;46.510;6.686;2022-10-13T05:41:31;21.60;;;10.50;;
57593;SDS011;43423;46.510;6.686;2022-10-13T05:43:58;18.60;;;9.00;;
57593;SDS011;43423;46.510;6.686;2022-10-13T05:46:26;16.65;;;9.90;;
57593;SDS011;43423;46.510;6.686;2022-10-13T05:48:52;16.10;;;10.13;;
57593;SDS011;43423;46.510;6.686;2022-10-13T05:51:25;18.65;;;9.68;;
57593;SDS011;43423;46.510;6.686;2022-10-13T05:54:00;16.38;;;8.50;;
57593;SDS011;43423;46.510;6.686;2022-10-13T05:56:31;14.18;;;8.65;;
57593;SDS011;43423;46.510;6.686;2022-10-13T05:59:05;21.33;;;8.88;;
57593;SDS011;43423;46.510;6.686;2022-10-13T06:01:35;19.42;;;9.50;;
57593;SDS011;43423;46.510;6.686;2022-10-13T06:04:03;15.73;;;9.20;;
57593;SDS011;43423;46.510;6.686;2022-10-13T06:06:33;18.98;;;10.55;;
57593;SDS011;43423;46.510;6.686;2022-10-13T06:08:59;20.73;;;10.15;;
57593;SDS011;43423;46.510;6.686;2022-10-13T06:11:25;20.85;;;9.70;;
57593;SDS011;43423;46.510;6.686;2022-10-13T06:13:51;18.20;;;9.13;;
57593;SDS011;43423;46.510;6.686;2022-10-13T06:16:16;19.95;;;10.00;;
57593;SDS011;43423;46.510;6.686;2022-10-13T06:18:42;19.70;;;10.15;;
57593;SDS011;43423;46.510;6.686;2022-10-13T06:21:08;17.98;;;9.57;;
57593;SDS011;43423;46.510;6.686;2022-10-13T06:23:33;16.48;;;9.48;;
57593;SDS011;43423;46.510;6.686;2022-10-13T06:25:59;21.60;;;10.65;;
57593;SDS011;43423;46.510;6.686;2022-10-13T06:28:25;20.00;;;10.40;;
57593;SDS011;43423;46.510;6.686;2022-10-13T06:30:51;19.35;;;10.07;;
57593;SDS011;43423;46.510;6.686;2022-10-13T06:33:22;17.70;;;9.85;;
57593;SDS011;43423;46.510;6.686;2022-10-13T06:35:48;19.85;;;9.75;;
57593;SDS011;43423;46.510;6.686;2022-10-13T06:38:15;20.52;;;10.23;;
57593;SDS011;43423;46.510;6.686;2022-10-13T06:40:40;16.23;;;9.20;;
57593;SDS011;43423;46.510;6.686;2022-10-13T06:43:06;21.80;;;9.68;;
57593;SDS011;43423;46.510;6.686;2022-10-13T06:45:32;20.75;;;9.80;;
57593;SDS011;43423;46.510;6.686;2022-10-13T06:47:57;17.65;;;9.98;;
57593;SDS011;43423;46.510;6.686;2022-10-13T06:50:23;16.52;;;8.95;;
57593;SDS011;43423;46.510;6.686;2022-10-13T06:52:49;17.30;;;9.18;;
57593;SDS011;43423;46.510;6.686;2022-10-13T06:55:14;17.27;;;8.88;;
57593;SDS011;43423;46.510;6.686;2022-10-13T06:57:41;14.32;;;8.40;;
57593;SDS011;43423;46.510;6.686;2022-10-13T07:00:06;21.92;;;9.18;;
57593;SDS011;43423;46.510;6.686;2022-10-13T07:02:33;17.98;;;8.50;;
57593;SDS011;43423;46.510;6.686;2022-10-13T07:04:58;20.83;;;10.00;;
57593;SDS011;43423;46.510;6.686;2022-10-13T07:07:24;15.23;;;7.43;;
57593;SDS011;43423;46.510;6.686;2022-10-13T07:09:50;13.15;;;7.68;;
57593;SDS011;43423;46.510;6.686;2022-10-13T07:12:16;13.82;;;7.38;;
57593;SDS011;43423;46.510;6.686;2022-10-13T07:14:41;14.07;;;7.18;;
57593;SDS011;43423;46.510;6.686;2022-10-13T07:17:07;12.25;;;6.43;;
57593;SDS011;43423;46.510;6.686;2022-10-13T07:19:32;20.92;;;7.28;;
57593;SDS011;43423;46.510;6.686;2022-10-13T07:21:58;12.70;;;7.15;;
57593;SDS011;43423;46.510;6.686;2022-10-13T07:24:24;14.63;;;7.10;;
57593;SDS011;43423;46.510;6.686;2022-10-13T07:26:49;13.38;;;6.43;;
57593;SDS011;43423;46.510;6.686;2022-10-13T07:29:15;14.18;;;6.80;;
57593;SDS011;43423;46.510;6.686;2022-10-13T07:31:41;12.15;;;5.78;;
57593;SDS011;43423;46.510;6.686;2022-10-13T07:34:07;18.10;;;6.32;;
57593;SDS011;43423;46.510;6.686;2022-10-13T07:36:33;14.43;;;6.10;;
57593;SDS011;43423;46.510;6.686;2022-10-13T07:39:00;12.95;;;6.22;;
57593;SDS011;43423;46.510;6.686;2022-10-13T07:41:27;12.52;;;5.93;;
57593;SDS011;43423;46.510;6.686;2022-10-13T07:43:56;9.27;;;5.63;;
57593;SDS011;43423;46.510;6.686;2022-10-13T07:46:22;13.80;;;6.22;;
57593;SDS011;43423;46.510;6.686;2022-10-13T07:48:48;15.70;;;6.28;;
57593;SDS011;43423;46.510;6.686;2022-10-13T07:51:13;15.48;;;6.47;;
57593;SDS011;43423;46.510;6.686;2022-10-13T07:53:39;15.38;;;7.00;;
57593;SDS011;43423;46.510;6.686;2022-10-13T07:56:09;11.90;;;6.20;;
57593;SDS011;43423;46.510;6.686;2022-10-13T07:58:36;14.00;;;6.95;;
57593;SDS011;43423;46.510;6.686;2022-10-13T08:01:02;11.57;;;6.20;;
57593;SDS011;43423;46.510;6.686;2022-10-13T08:03:28;9.50;;;5.05;;
57593;SDS011;43423;46.510;6.686;2022-10-13T08:05:54;8.50;;;5.18;;
57593;SDS011;43423;46.510;6.686;2022-10-13T08:08:23;8.80;;;4.80;;
57593;SDS011;43423;46.510;6.686;2022-10-13T08:10:49;11.13;;;4.55;;
57593;SDS011;43423;46.510;6.686;2022-10-13T08:13:14;8.88;;;4.38;;
57593;SDS011;43423;46.510;6.686;2022-10-13T08:15:40;11.43;;;5.05;;
57593;SDS011;43423;46.510;6.686;2022-10-13T08:18:08;10.20;;;4.55;;
57593;SDS011;43423;46.510;6.686;2022-10-13T08:20:38;10.45;;;4.93;;
57593;SDS011;43423;46.510;6.686;2022-10-13T08:23:04;5.43;;;3.95;;
57593;SDS011;43423;46.510;6.686;2022-10-13T08:25:30;10.13;;;4.00;;
57593;SDS011;43423;46.510;6.686;2022-10-13T08:28:00;9.85;;;5.25;;
57593;SDS011;43423;46.510;6.686;2022-10-13T08:30:26;9.52;;;4.43;;
57593;SDS011;43423;46.510;6.686;2022-10-13T08:32:51;8.95;;;4.47;;
57593;SDS011;43423;46.510;6.686;2022-10-13T08:35:17;7.25;;;4.20;;
57593;SDS011;43423;46.510;6.686;2022-10-13T08:37:42;13.38;;;4.90;;
57593;SDS011;43423;46.510;6.686;2022-10-13T08:40:10;7.72;;;4.50;;
57593;SDS011;43423;46.510;6.686;2022-10-13T08:42:41;10.02;;;4.00;;
57593;SDS011;43423;46.510;6.686;2022-10-13T08:45:09;8.15;;;4.85;;
57593;SDS011;43423;46.510;6.686;2022-10-13T08:47:59;8.00;;;4.63;;
57593;SDS011;43423;46.510;6.686;2022-10-13T08:50:32;6.75;;;3.97;;
57593;SDS011;43423;46.510;6.686;2022-10-13T08:53:02;6.75;;;4.22;;
57593;SDS011;43423;46.510;6.686;2022-10-13T08:55:45;8.75;;;4.15;;
57593;SDS011;43423;46.510;6.686;2022-10-13T08:58:24;7.35;;;3.92;;
57593;SDS011;43423;46.510;6.686;2022-10-13T09:01:12;7.55;;;4.63;;
57593;SDS011;43423;46.510;6.686;2022-10-13T09:03:51;10.32;;;4.57;;
57593;SDS011;43423;46.510;6.686;2022-10-13T09:08:57;8.85;;;4.10;;
57593;SDS011;43423;46.510;6.686;2022-10-13T09:11:30;7.70;;;4.30;;
57593;SDS011;43423;46.510;6.686;2022-10-13T09:13:59;9.85;;;4.50;;
57593;SDS011;43423;46.510;6.686;2022-10-13T09:16:33;6.78;;;4.53;;
57593;SDS011;43423;46.510;6.686;2022-10-13T09:19:13;7.97;;;4.25;;
57593;SDS011;43423;46.510;6.686;2022-10-13T09:21:48;6.43;;;4.38;;
57593;SDS011;43423;46.510;6.686;2022-10-13T09:24:16;8.07;;;3.80;;
57593;SDS011;43423;46.510;6.686;2022-10-13T09:26:44;11.50;;;4.97;;
57593;SDS011;43423;46.510;6.686;2022-10-13T09:29:15;9.63;;;5.15;;
57593;SDS011;43423;46.510;6.686;2022-10-13T09:31:48;7.78;;;5.18;;
57593;SDS011;43423;46.510;6.686;2022-10-13T09:39:24;7.28;;;4.40;;
57593;SDS011;43423;46.510;6.686;2022-10-13T09:41:50;7.85;;;4.53;;
57593;SDS011;43423;46.510;6.686;2022-10-13T09:44:17;7.70;;;4.50;;
57593;SDS011;43423;46.510;6.686;2022-10-13T09:46:58;8.57;;;4.70;;
57593;SDS011;43423;46.510;6.686;2022-10-13T09:49:36;7.15;;;4.70;;
57593;SDS011;43423;46.510;6.686;2022-10-13T09:52:16;11.13;;;4.97;;
57593;SDS011;43423;46.510;6.686;2022-10-13T09:54:47;9.38;;;4.65;;
57593;SDS011;43423;46.510;6.686;2022-10-13T09:57:50;11.65;;;4.70;;
57593;SDS011;43423;46.510;6.686;2022-10-13T10:05:23;12.48;;;4.93;;
57593;SDS011;43423;46.510;6.686;2022-10-13T10:08:22;8.75;;;4.68;;
57593;SDS011;43423;46.510;6.686;2022-10-13T10:10:55;7.38;;;4.55;;
57593;SDS011;43423;46.510;6.686;2022-10-13T10:13:24;11.35;;;5.18;;
57593;SDS011;43423;46.510;6.686;2022-10-13T10:16:04;7.03;;;4.85;;
57593;SDS011;43423;46.510;6.686;2022-10-13T10:21:08;9.43;;;5.70;;
57593;SDS011;43423;46.510;6.686;2022-10-13T10:23:50;8.73;;;4.85;;
57593;SDS011;43423;46.510;6.686;2022-10-13T10:27:13;12.05;;;5.57;;
57593;SDS011;43423;46.510;6.686;2022-10-13T10:29:23;12.75;;;5.45;;
57593;SDS011;43423;46.510;6.686;2022-10-13T10:37:52;10.50;;;5.18;;
57593;SDS011;43423;46.510;6.686;2022-10-13T10:40:31;7.63;;;4.90;;
57593;SDS011;43423;46.510;6.686;2022-10-13T10:45:54;8.05;;;4.78;;
57593;SDS011;43423;46.510;6.686;2022-10-13T10:50:57;12.95;;;5.57;;
57593;SDS011;43423;46.510;6.686;2022-10-13T10:56:18;12.15;;;6.35;;
57593;SDS011;43423;46.510;6.686;2022-10-13T11:01:42;11.18;;;6.32;;
57593;SDS011;43423;46.510;6.686;2022-10-13T11:14:44;11.80;;;6.18;;
57593;SDS011;43423;46.510;6.686;2022-10-13T11:17:17;10.35;;;5.70;;
57593;SDS011;43423;46.510;6.686;2022-10-13T11:22:41;10.02;;;5.28;;
57593;SDS011;43423;46.510;6.686;2022-10-13T11:25:34;9.15;;;5.60;;
57593;SDS011;43423;46.510;6.686;2022-10-13T11:30:46;13.98;;;7.40;;
57593;SDS011;43423;46.510;6.686;2022-10-13T11:33:33;11.30;;;6.80;;
57593;SDS011;43423;46.510;6.686;2022-10-13T11:42:12;15.35;;;6.32;;
57593;SDS011;43423;46.510;6.686;2022-10-13T11:44:54;26.15;;;8.63;;
57593;SDS011;43423;46.510;6.686;2022-10-13T11:50:16;23.27;;;9.57;;
57593;SDS011;43423;46.510;6.686;2022-10-13T11:55:56;17.05;;;6.38;;
57593;SDS011;43423;46.510;6.686;2022-10-13T11:58:23;16.77;;;8.13;;
57593;SDS011;43423;46.510;6.686;2022-10-13T12:03:30;19.48;;;7.40;;
57593;SDS011;43423;46.510;6.686;2022-10-13T12:06:01;10.25;;;6.72;;
57593;SDS011;43423;46.510;6.686;2022-10-13T12:08:49;14.50;;;6.47;;
57593;SDS011;43423;46.510;6.686;2022-10-13T12:11:23;14.65;;;6.30;;
57593;SDS011;43423;46.510;6.686;2022-10-13T12:13:51;12.48;;;6.95;;
57593;SDS011;43423;46.510;6.686;2022-10-13T12:16:17;9.15;;;6.43;;
57593;SDS011;43423;46.510;6.686;2022-10-13T12:18:43;11.70;;;6.68;;
57593;SDS011;43423;46.510;6.686;2022-10-13T12:23:36;14.27;;;7.35;;
57593;SDS011;43423;46.510;6.686;2022-10-13T12:26:02;12.65;;;6.57;;
57593;SDS011;43423;46.510;6.686;2022-10-13T12:31:24;13.10;;;6.82;;
57593;SDS011;43423;46.510;6.686;2022-10-13T12:36:20;10.40;;;6.38;;
57593;SDS011;43423;46.510;6.686;2022-10-13T12:38:58;13.98;;;6.47;;
57593;SDS011;43423;46.510;6.686;2022-10-13T12:41:33;15.65;;;7.70;;
57593;SDS011;43423;46.510;6.686;2022-10-13T12:44:01;15.85;;;6.70;;
57593;SDS011;43423;46.510;6.686;2022-10-13T12:46:37;10.10;;;6.32;;
57593;SDS011;43423;46.510;6.686;2022-10-13T12:49:24;17.63;;;7.72;;
57593;SDS011;43423;46.510;6.686;2022-10-13T12:51:57;18.50;;;8.85;;
57593;SDS011;43423;46.510;6.686;2022-10-13T12:54:30;16.20;;;8.60;;
57593;SDS011;43423;46.510;6.686;2022-10-13T12:56:59;26.60;;;9.23;;
57593;SDS011;43423;46.510;6.686;2022-10-13T12:59:28;24.55;;;11.15;;
57593;SDS011;43423;46.510;6.686;2022-10-13T13:01:59;25.90;;;10.45;;
57593;SDS011;43423;46.510;6.686;2022-10-13T13:04:28;24.05;;;11.73;;
57593;SDS011;43423;46.510;6.686;2022-10-13T13:06:57;25.42;;;11.02;;
57593;SDS011;43423;46.510;6.686;2022-10-13T13:09:28;27.25;;;12.63;;
57593;SDS011;43423;46.510;6.686;2022-10-13T13:12:32;22.17;;;10.75;;
57593;SDS011;43423;46.510;6.686;2022-10-13T13:14:51;24.98;;;12.10;;
57593;SDS011;43423;46.510;6.686;2022-10-13T13:19:50;29.95;;;11.40;;
57593;SDS011;43423;46.510;6.686;2022-10-13T13:22:17;20.75;;;8.30;;
57593;SDS011;43423;46.510;6.686;2022-10-13T13:24:43;20.73;;;8.43;;
57593;SDS011;43423;46.510;6.686;2022-10-13T13:27:16;22.33;;;10.60;;
57593;SDS011;43423;46.510;6.686;2022-10-13T13:29:47;19.42;;;8.68;;
57593;SDS011;43423;46.510;6.686;2022-10-13T13:32:14;20.77;;;10.02;;
57593;SDS011;43423;46.510;6.686;2022-10-13T13:34:41;16.90;;;9.48;;
57593;SDS011;43423;46.510;6.686;2022-10-13T13:37:12;15.00;;;9.00;;
57593;SDS011;43423;46.510;6.686;2022-10-13T13:39:52;18.10;;;9.68;;
57593;SDS011;43423;46.510;6.686;2022-10-13T13:42:18;22.30;;;9.45;;
57593;SDS011;43423;46.510;6.686;2022-10-13T13:44:43;27.98;;;10.20;;
57593;SDS011;43423;46.510;6.686;2022-10-13T13:47:16;19.17;;;9.68;;
57593;SDS011;43423;46.510;6.686;2022-10-13T13:49:46;17.40;;;10.13;;
57593;SDS011;43423;46.510;6.686;2022-10-13T13:52:12;23.80;;;10.10;;
57593;SDS011;43423;46.510;6.686;2022-10-13T13:54:38;20.92;;;9.68;;
57593;SDS011;43423;46.510;6.686;2022-10-13T13:57:04;21.50;;;9.82;;
57593;SDS011;43423;46.510;6.686;2022-10-13T13:59:30;24.08;;;10.93;;
57593;SDS011;43423;46.510;6.686;2022-10-13T14:01:55;24.27;;;10.82;;
57593;SDS011;43423;46.510;6.686;2022-10-13T14:04:20;24.65;;;10.80;;
57593;SDS011;43423;46.510;6.686;2022-10-13T14:06:46;17.75;;;9.68;;
57593;SDS011;43423;46.510;6.686;2022-10-13T14:09:11;23.35;;;10.13;;
57593;SDS011;43423;46.510;6.686;2022-10-13T14:11:37;22.88;;;10.27;;
57593;SDS011;43423;46.510;6.686;2022-10-13T14:14:02;21.63;;;10.75;;
57593;SDS011;43423;46.510;6.686;2022-10-13T14:16:28;21.27;;;9.52;;
57593;SDS011;43423;46.510;6.686;2022-10-13T14:18:57;23.73;;;9.95;;
57593;SDS011;43423;46.510;6.686;2022-10-13T14:21:22;21.42;;;10.65;;
57593;SDS011;43423;46.510;6.686;2022-10-13T14:23:48;20.60;;;10.63;;
57593;SDS011;43423;46.510;6.686;2022-10-13T14:26:13;19.23;;;9.48;;
57593;SDS011;43423;46.510;6.686;2022-10-13T14:28:40;17.15;;;9.93;;
57593;SDS011;43423;46.510;6.686;2022-10-13T14:31:06;22.55;;;9.32;;
57593;SDS011;43423;46.510;6.686;2022-10-13T14:33:32;20.75;;;9.18;;
57593;SDS011;43423;46.510;6.686;2022-10-13T14:35:58;17.95;;;9.32;;
57593;SDS011;43423;46.510;6.686;2022-10-13T14:38:28;19.03;;;10.03;;
57593;SDS011;43423;46.510;6.686;2022-10-13T14:40:57;23.33;;;9.52;;
57593;SDS011;43423;46.510;6.686;2022-10-13T14:43:24;20.55;;;9.50;;
57593;SDS011;43423;46.510;6.686;2022-10-13T14:45:49;20.15;;;10.75;;
57593;SDS011;43423;46.510;6.686;2022-10-13T14:48:15;18.38;;;9.18;;
57593;SDS011;43423;46.510;6.686;2022-10-13T14:50:40;22.63;;;8.98;;
57593;SDS011;43423;46.510;6.686;2022-10-13T14:53:05;15.82;;;9.25;;
57593;SDS011;43423;46.510;6.686;2022-10-13T14:55:33;13.82;;;8.63;;
57593;SDS011;43423;46.510;6.686;2022-10-13T14:57:59;21.38;;;9.93;;
57593;SDS011;43423;46.510;6.686;2022-10-13T15:00:24;21.98;;;9.63;;
57593;SDS011;43423;46.510;6.686;2022-10-13T15:02:50;21.98;;;9.63;;
57593;SDS011;43423;46.510;6.686;2022-10-13T15:05:15;21.33;;;10.10;;
57593;SDS011;43423;46.510;6.686;2022-10-13T15:07:41;25.20;;;10.30;;
57593;SDS011;43423;46.510;6.686;2022-10-13T15:10:06;22.65;;;10.95;;
57593;SDS011;43423;46.510;6.686;2022-10-13T15:12:32;17.88;;;10.20;;
57593;SDS011;43423;46.510;6.686;2022-10-13T15:14:58;26.17;;;11.25;;
57593;SDS011;43423;46.510;6.686;2022-10-13T15:17:23;21.50;;;11.20;;
57593;SDS011;43423;46.510;6.686;2022-10-13T15:19:49;24.63;;;10.68;;
57593;SDS011;43423;46.510;6.686;2022-10-13T15:22:14;27.73;;;11.40;;
57593;SDS011;43423;46.510;6.686;2022-10-13T15:24:40;23.60;;;11.80;;
57593;SDS011;43423;46.510;6.686;2022-10-13T15:27:06;21.48;;;10.52;;
57593;SDS011;43423;46.510;6.686;2022-10-13T15:29:31;20.40;;;9.82;;
57593;SDS011;43423;46.510;6.686;2022-10-13T15:32:05;25.00;;;9.80;;
57593;SDS011;43423;46.510;6.686;2022-10-13T15:34:32;19.80;;;10.13;;
57593;SDS011;43423;46.510;6.686;2022-10-13T15:36:58;20.98;;;10.13;;
57593;SDS011;43423;46.510;6.686;2022-10-13T15:39:23;20.27;;;10.63;;
57593;SDS011;43423;46.510;6.686;2022-10-13T15:41:49;19.75;;;10.40;;
57593;SDS011;43423;46.510;6.686;2022-10-13T15:44:14;23.10;;;9.75;;
57593;SDS011;43423;46.510;6.686;2022-10-13T15:46:43;20.23;;;10.00;;
57593;SDS011;43423;46.510;6.686;2022-10-13T15:49:09;18.58;;;9.57;;
57593;SDS011;43423;46.510;6.686;2022-10-13T15:51:34;20.42;;;9.77;;
57593;SDS011;43423;46.510;6.686;2022-10-13T15:54:00;21.35;;;9.75;;
57593;SDS011;43423;46.510;6.686;2022-10-13T15:56:26;20.50;;;9.90;;
57593;SDS011;43423;46.510;6.686;2022-10-13T15:58:52;18.88;;;10.00;;
57593;SDS011;43423;46.510;6.686;2022-10-13T16:01:18;19.20;;;9.57;;
57593;SDS011;43423;46.510;6.686;2022-10-13T16:03:43;17.60;;;9.15;;
57593;SDS011;43423;46.510;6.686;2022-10-13T16:06:09;16.95;;;9.02;;
57593;SDS011;43423;46.510;6.686;2022-10-13T16:08:38;19.90;;;9.77;;
57593;SDS011;43423;46.510;6.686;2022-10-13T16:11:08;19.35;;;9.73;;
57593;SDS011;43423;46.510;6.686;2022-10-13T16:13:34;19.25;;;8.93;;
57593;SDS011;43423;46.510;6.686;2022-10-13T16:16:00;18.35;;;9.60;;
57593;SDS011;43423;46.510;6.686;2022-10-13T16:18:29;20.27;;;9.23;;